Vick, Louisiana
Current Conditions -  °F | °C
As of 8:53 PM on Saturday 22 Nov 2014 (Local Time) from KESF Reporting Station
Overcast Overcast  
Wind Chill: 64°   Ceiling: 9000
Heat Index: 64°   Visibility: 10mi
Dew Point: 58°   Wind: 13mph
Humidity: 80%   Direction: 120°ESE
Pressure: 29.9"   Gusts: NA
Location:  31.269°N, 92.0664°W
Report Text: KESF 230253Z AUTO 12011KT 10SM FEW041 BKN090 OVC110 18/14 A2990 RMK AO2 SLP123 60000 T01780144 56019
Loading
Personal Weather Stations






























Interactive Weather Map New forecast layout! Learn more

10-Day Weather Forecast

Advertisements
Track Severe Weather on mobile